Prima Donna — OH2219 — position and weather

sailwx.info

Track history (hours):
 
Tides and Currents Weather Stations Pressure Air Temp Water Temp Dewpoint Dewpoint Depression Visibility Wind Speed Wind Dir Waves Ship Positions

Prima Donna

Last reported at 2018-May-30 16:30 UTC. Time now 2018-Jun-24 11:14 UTC.
Position N 49°48' W 001°15'.
Warning: this ship's position is 24 days out of date.

Length 15 m.

Type: Sailing vessel. MMSI: 230044860.

Date/timePositionNaut miles runAvg speedWind from/ knotsBaromVisibWave heightAir tempDewpointWater temp
2018-May-30 16:30N 49°48' W 001°15'3 5.3
2018-May-30 15:55N 49°47' W 001°19'2 4.7
2018-May-30 15:30N 49°46' W 001°22'2 4.9
2018-May-30 15:00N 49°45' W 001°25'3 5.6
2018-May-30 14:30N 49°44' W 001°29'3 5.5
2018-May-30 14:00N 49°42' W 001°33'3 5.0
2018-May-30 13:30N 49°40' W 001°36'2 3.8
2018-May-30 12:59N 49°39' W 001°37'0 0.3
2018-May-30 12:28N 49°39' W 001°37'0 0.0
2018-May-30 11:58N 49°39' W 001°37'0 0.0
2018-May-30 11:28N 49°39' W 001°37'0 0.1
2018-May-30 10:59N 49°39' W 001°37'1 2.1
2018-May-30 10:31N 49°40' W 001°37'3 5.9
2018-May-30 10:01N 49°41' W 001°41'3 6.8
2018-May-30 09:30N 49°43' W 001°46'  
2018-May-27 18:20N 48°38' W 004°46'1 4.2
2018-May-27 18:00N 48°37' W 004°48'3 6.8
2018-May-27 17:30N 48°34' W 004°50'4 7.0
2018-May-27 17:00N 48°30' W 004°50'4 7.0
2018-May-27 16:30N 48°27' W 004°50'3 6.0
2018-May-27 15:58N 48°23' W 004°49'3 5.6
2018-May-27 15:28N 48°21' W 004°48'3 6.5
2018-May-27 14:58N 48°18' W 004°48'4 7.2
2018-May-27 14:21N 48°13' W 004°48'2 7.2
2018-May-27 14:00N 48°11' W 004°48'3 6.7
2018-May-27 13:30N 48°07' W 004°47'4 8.2
2018-May-27 12:58N 48°03' W 004°46'  
Track history (hours):
 
Tides and Currents Weather Stations Pressure Air Temp Water Temp Dewpoint Dewpoint Depression Visibility Wind Speed Wind Dir Waves Ship Positions

Prima Donna

Last reported at 2018-May-30 16:30 UTC. Time now 2018-Jun-24 11:14 UTC.
Position N 49°48' W 001°15'.
Warning: this ship's position is 24 days out of date.

Length 15 m.

Type: Sailing vessel. MMSI: 230044860.

Date/timePositionNaut miles runAvg speedWind from/ knotsBaromVisibWave heightAir tempDewpointWater temp
2018-May-30 16:30N 49°48' W 001°15'3 5.3
2018-May-30 15:55N 49°47' W 001°19'2 4.7
2018-May-30 15:30N 49°46' W 001°22'2 4.9
2018-May-30 15:00N 49°45' W 001°25'3 5.6
2018-May-30 14:30N 49°44' W 001°29'3 5.5
2018-May-30 14:00N 49°42' W 001°33'3 5.0
2018-May-30 13:30N 49°40' W 001°36'2 3.8
2018-May-30 12:59N 49°39' W 001°37'0 0.3
2018-May-30 12:28N 49°39' W 001°37'0 0.0
2018-May-30 11:58N 49°39' W 001°37'0 0.0
2018-May-30 11:28N 49°39' W 001°37'0 0.1
2018-May-30 10:59N 49°39' W 001°37'1 2.1
2018-May-30 10:31N 49°40' W 001°37'3 5.9
2018-May-30 10:01N 49°41' W 001°41'3 6.8
2018-May-30 09:30N 49°43' W 001°46'  
2018-May-27 18:20N 48°38' W 004°46'1 4.2
2018-May-27 18:00N 48°37' W 004°48'3 6.8
2018-May-27 17:30N 48°34' W 004°50'4 7.0
2018-May-27 17:00N 48°30' W 004°50'4 7.0
2018-May-27 16:30N 48°27' W 004°50'3 6.0
2018-May-27 15:58N 48°23' W 004°49'3 5.6
2018-May-27 15:28N 48°21' W 004°48'3 6.5
2018-May-27 14:58N 48°18' W 004°48'4 7.2
2018-May-27 14:21N 48°13' W 004°48'2 7.2
2018-May-27 14:00N 48°11' W 004°48'3 6.7
2018-May-27 13:30N 48°07' W 004°47'4 8.2
2018-May-27 12:58N 48°03' W 004°46'  

Dump ship's entire track history